Accueil
METAR-TAF:

METAR-TAF

Aéroports :

Santee_Cooper_Regional_Airport

Manning, Caroline du Sud, États-Unis

latitude: 33-35N, longitude: 080-13W, altitude: 32 m

Observation

Le bulletin a été fait il y a 29 minutes, à 21:35 UTC
Vent 3 kt de nord/nord-est
Température 15°C
Humidité 51%
Pression 1021 hPa
Visibilité: 16.1 km
Ciel clair

METAR: KMNI 202135Z AUTO 03003KT 10SM CLR 15/05 A3015 RMK AO2

Heure: 17:04 (22:04 UTC)


TAF: absent

Observations et prévisions météorologiques de plus de 4000 aéroports (messages METAR et TAF).

Les stations disponibles sont représentées par des disques jaunes et rouges sur la carte.

Passer la souris dessus pour voir le nom de la station.

Cliquer dessus pour voir les observations et prévisions météorologiques.

Pour changer de carte: cliquez sur les boutons verts avec une croix noire pour zoomer, sur le bouton vert avec un tiret pour effectuer un zoom arrière, ou sur les flèches vertes pour les cartes adjacentes.


METAR-TAF: